sensor_id;sensor_type;location;lat;lon;timestamp;P1;durP1;ratioP1;P2;durP2;ratioP2
18072;SDS011;9161;47.348;9.648;2024-02-26T00:01:25;0.10;;;0.10;;
18072;SDS011;9161;47.348;9.648;2024-02-26T00:06:29;0.00;;;0.00;;
18072;SDS011;9161;47.348;9.648;2024-02-26T00:11:33;0.20;;;0.10;;
18072;SDS011;9161;47.348;9.648;2024-02-26T00:16:39;0.07;;;0.07;;
18072;SDS011;9161;47.348;9.648;2024-02-26T00:21:42;0.20;;;0.10;;
18072;SDS011;9161;47.348;9.648;2024-02-26T00:26:45;0.77;;;0.20;;
18072;SDS011;9161;47.348;9.648;2024-02-26T00:31:54;1.00;;;0.10;;
18072;SDS011;9161;47.348;9.648;2024-02-26T00:36:57;0.00;;;0.00;;
18072;SDS011;9161;47.348;9.648;2024-02-26T00:42:01;0.97;;;0.10;;
18072;SDS011;9161;47.348;9.648;2024-02-26T00:47:05;0.03;;;0.03;;
18072;SDS011;9161;47.348;9.648;2024-02-26T00:52:07;0.10;;;0.00;;
18072;SDS011;9161;47.348;9.648;2024-02-26T00:57:11;0.00;;;0.00;;
18072;SDS011;9161;47.348;9.648;2024-02-26T01:02:15;0.10;;;0.10;;
18072;SDS011;9161;47.348;9.648;2024-02-26T01:07:17;0.00;;;0.00;;
18072;SDS011;9161;47.348;9.648;2024-02-26T01:12:22;1.30;;;0.10;;
18072;SDS011;9161;47.348;9.648;2024-02-26T01:17:25;0.20;;;0.10;;
18072;SDS011;9161;47.348;9.648;2024-02-26T01:22:27;0.00;;;0.00;;
18072;SDS011;9161;47.348;9.648;2024-02-26T01:27:30;0.20;;;0.10;;
18072;SDS011;9161;47.348;9.648;2024-02-26T01:32:32;0.10;;;0.10;;
18072;SDS011;9161;47.348;9.648;2024-02-26T01:37:36;0.33;;;0.07;;
18072;SDS011;9161;47.348;9.648;2024-02-26T01:42:40;0.00;;;0.00;;
18072;SDS011;9161;47.348;9.648;2024-02-26T01:47:42;0.00;;;0.00;;
18072;SDS011;9161;47.348;9.648;2024-02-26T01:52:46;0.10;;;0.10;;
18072;SDS011;9161;47.348;9.648;2024-02-26T01:57:51;0.00;;;0.00;;
18072;SDS011;9161;47.348;9.648;2024-02-26T02:02:54;0.10;;;0.10;;
18072;SDS011;9161;47.348;9.648;2024-02-26T02:07:57;0.10;;;0.10;;
18072;SDS011;9161;47.348;9.648;2024-02-26T02:13:01;0.00;;;0.00;;
18072;SDS011;9161;47.348;9.648;2024-02-26T02:18:03;0.00;;;0.00;;
18072;SDS011;9161;47.348;9.648;2024-02-26T02:23:08;0.03;;;0.03;;
18072;SDS011;9161;47.348;9.648;2024-02-26T02:28:10;0.10;;;0.00;;
18072;SDS011;9161;47.348;9.648;2024-02-26T02:33:12;0.00;;;0.00;;
18072;SDS011;9161;47.348;9.648;2024-02-26T02:38:17;0.07;;;0.07;;
18072;SDS011;9161;47.348;9.648;2024-02-26T02:43:18;0.10;;;0.00;;
18072;SDS011;9161;47.348;9.648;2024-02-26T02:48:21;0.00;;;0.00;;
18072;SDS011;9161;47.348;9.648;2024-02-26T02:53:25;0.00;;;0.00;;
18072;SDS011;9161;47.348;9.648;2024-02-26T02:58:27;0.07;;;0.07;;
18072;SDS011;9161;47.348;9.648;2024-02-26T03:03:30;0.40;;;0.10;;
18072;SDS011;9161;47.348;9.648;2024-02-26T03:08:33;0.27;;;0.00;;
18072;SDS011;9161;47.348;9.648;2024-02-26T03:13:38;0.00;;;0.00;;
18072;SDS011;9161;47.348;9.648;2024-02-26T03:18:40;0.00;;;0.00;;
18072;SDS011;9161;47.348;9.648;2024-02-26T03:23:44;0.03;;;0.00;;
18072;SDS011;9161;47.348;9.648;2024-02-26T03:28:47;0.00;;;0.00;;
18072;SDS011;9161;47.348;9.648;2024-02-26T03:33:49;0.10;;;0.00;;
18072;SDS011;9161;47.348;9.648;2024-02-26T03:38:54;0.00;;;0.00;;
18072;SDS011;9161;47.348;9.648;2024-02-26T03:43:57;0.07;;;0.00;;
18072;SDS011;9161;47.348;9.648;2024-02-26T03:48:59;0.00;;;0.00;;
18072;SDS011;9161;47.348;9.648;2024-02-26T03:54:02;0.37;;;0.00;;
18072;SDS011;9161;47.348;9.648;2024-02-26T03:59:05;0.37;;;0.10;;
18072;SDS011;9161;47.348;9.648;2024-02-26T04:04:07;0.07;;;0.00;;
18072;SDS011;9161;47.348;9.648;2024-02-26T04:09:11;0.00;;;0.00;;
18072;SDS011;9161;47.348;9.648;2024-02-26T04:14:14;0.10;;;0.03;;
18072;SDS011;9161;47.348;9.648;2024-02-26T04:19:17;0.10;;;0.00;;
18072;SDS011;9161;47.348;9.648;2024-02-26T04:24:21;2.10;;;0.53;;
18072;SDS011;9161;47.348;9.648;2024-02-26T04:29:23;2.57;;;0.30;;
18072;SDS011;9161;47.348;9.648;2024-02-26T04:34:25;0.63;;;0.33;;
18072;SDS011;9161;47.348;9.648;2024-02-26T04:39:29;1.57;;;0.63;;
18072;SDS011;9161;47.348;9.648;2024-02-26T04:44:31;1.30;;;0.67;;
18072;SDS011;9161;47.348;9.648;2024-02-26T04:49:33;3.27;;;0.90;;
18072;SDS011;9161;47.348;9.648;2024-02-26T04:54:37;1.80;;;0.60;;
18072;SDS011;9161;47.348;9.648;2024-02-26T04:59:40;2.77;;;0.60;;
18072;SDS011;9161;47.348;9.648;2024-02-26T05:04:43;1.67;;;0.67;;
18072;SDS011;9161;47.348;9.648;2024-02-26T05:09:46;0.83;;;0.50;;
18072;SDS011;9161;47.348;9.648;2024-02-26T05:14:50;0.20;;;0.20;;
18072;SDS011;9161;47.348;9.648;2024-02-26T05:19:52;0.10;;;0.10;;
18072;SDS011;9161;47.348;9.648;2024-02-26T05:24:56;0.90;;;0.10;;
18072;SDS011;9161;47.348;9.648;2024-02-26T05:29:58;0.37;;;0.20;;
18072;SDS011;9161;47.348;9.648;2024-02-26T05:35:00;0.10;;;0.10;;
18072;SDS011;9161;47.348;9.648;2024-02-26T05:40:05;1.00;;;0.30;;
18072;SDS011;9161;47.348;9.648;2024-02-26T05:45:09;0.33;;;0.10;;
18072;SDS011;9161;47.348;9.648;2024-02-26T05:50:12;0.47;;;0.10;;
18072;SDS011;9161;47.348;9.648;2024-02-26T05:55:17;0.27;;;0.20;;
18072;SDS011;9161;47.348;9.648;2024-02-26T06:00:19;0.33;;;0.10;;
18072;SDS011;9161;47.348;9.648;2024-02-26T06:05:22;0.10;;;0.10;;
18072;SDS011;9161;47.348;9.648;2024-02-26T06:10:25;0.70;;;0.33;;
18072;SDS011;9161;47.348;9.648;2024-02-26T06:15:28;1.83;;;0.50;;
18072;SDS011;9161;47.348;9.648;2024-02-26T06:20:30;3.23;;;0.60;;
18072;SDS011;9161;47.348;9.648;2024-02-26T06:25:34;9.53;;;0.90;;
18072;SDS011;9161;47.348;9.648;2024-02-26T06:30:37;3.17;;;0.80;;
18072;SDS011;9161;47.348;9.648;2024-02-26T06:35:39;1.77;;;0.80;;
18072;SDS011;9161;47.348;9.648;2024-02-26T06:40:43;7.43;;;0.90;;
18072;SDS011;9161;47.348;9.648;2024-02-26T06:45:47;2.60;;;0.80;;
18072;SDS011;9161;47.348;9.648;2024-02-26T06:50:49;0.87;;;0.40;;
18072;SDS011;9161;47.348;9.648;2024-02-26T06:55:53;1.87;;;0.63;;
18072;SDS011;9161;47.348;9.648;2024-02-26T07:00:55;0.93;;;0.77;;
18072;SDS011;9161;47.348;9.648;2024-02-26T07:05:57;1.10;;;0.60;;
18072;SDS011;9161;47.348;9.648;2024-02-26T07:11:01;1.30;;;0.63;;
18072;SDS011;9161;47.348;9.648;2024-02-26T07:16:03;1.97;;;0.80;;
18072;SDS011;9161;47.348;9.648;2024-02-26T07:21:06;1.60;;;0.60;;
18072;SDS011;9161;47.348;9.648;2024-02-26T07:26:10;0.90;;;0.57;;
18072;SDS011;9161;47.348;9.648;2024-02-26T07:31:13;1.33;;;0.63;;
18072;SDS011;9161;47.348;9.648;2024-02-26T07:36:15;1.70;;;0.60;;
18072;SDS011;9161;47.348;9.648;2024-02-26T07:41:19;1.67;;;0.50;;
18072;SDS011;9161;47.348;9.648;2024-02-26T07:46:21;3.07;;;0.70;;
18072;SDS011;9161;47.348;9.648;2024-02-26T07:51:23;5.40;;;0.70;;
18072;SDS011;9161;47.348;9.648;2024-02-26T07:56:27;1.53;;;0.70;;
18072;SDS011;9161;47.348;9.648;2024-02-26T08:01:29;1.83;;;0.83;;
18072;SDS011;9161;47.348;9.648;2024-02-26T08:06:31;1.47;;;0.60;;
18072;SDS011;9161;47.348;9.648;2024-02-26T08:11:39;2.07;;;1.00;;
18072;SDS011;9161;47.348;9.648;2024-02-26T08:16:41;3.30;;;0.97;;
18072;SDS011;9161;47.348;9.648;2024-02-26T08:21:43;1.57;;;0.80;;
18072;SDS011;9161;47.348;9.648;2024-02-26T08:26:47;1.30;;;0.60;;
18072;SDS011;9161;47.348;9.648;2024-02-26T08:31:49;1.63;;;0.80;;
18072;SDS011;9161;47.348;9.648;2024-02-26T08:36:52;0.80;;;0.57;;
18072;SDS011;9161;47.348;9.648;2024-02-26T08:41:55;1.23;;;0.50;;
18072;SDS011;9161;47.348;9.648;2024-02-26T08:46:59;1.60;;;0.70;;
18072;SDS011;9161;47.348;9.648;2024-02-26T08:52:01;1.37;;;0.70;;
18072;SDS011;9161;47.348;9.648;2024-02-26T08:57:05;1.43;;;0.73;;
18072;SDS011;9161;47.348;9.648;2024-02-26T09:02:07;1.40;;;0.73;;
18072;SDS011;9161;47.348;9.648;2024-02-26T09:07:12;1.03;;;0.70;;
18072;SDS011;9161;47.348;9.648;2024-02-26T09:12:18;3.60;;;0.80;;
18072;SDS011;9161;47.348;9.648;2024-02-26T09:17:21;1.40;;;0.60;;
18072;SDS011;9161;47.348;9.648;2024-02-26T09:22:24;1.25;;;0.80;;
18072;SDS011;9161;47.348;9.648;2024-02-26T09:27:27;3.40;;;1.50;;
18072;SDS011;9161;47.348;9.648;2024-02-26T09:32:31;6.43;;;1.15;;
18072;SDS011;9161;47.348;9.648;2024-02-26T09:37:33;1.40;;;0.77;;
18072;SDS011;9161;47.348;9.648;2024-02-26T09:42:38;3.20;;;0.90;;
18072;SDS011;9161;47.348;9.648;2024-02-26T09:47:44;1.20;;;0.93;;
18072;SDS011;9161;47.348;9.648;2024-02-26T09:52:49;1.90;;;0.90;;
18072;SDS011;9161;47.348;9.648;2024-02-26T09:57:54;1.63;;;1.03;;
18072;SDS011;9161;47.348;9.648;2024-02-26T10:02:57;2.53;;;1.00;;
18072;SDS011;9161;47.348;9.648;2024-02-26T10:08:04;3.47;;;1.33;;
18072;SDS011;9161;47.348;9.648;2024-02-26T10:13:08;3.13;;;1.27;;
18072;SDS011;9161;47.348;9.648;2024-02-26T10:18:12;7.50;;;1.70;;
18072;SDS011;9161;47.348;9.648;2024-02-26T10:23:14;5.00;;;1.03;;
18072;SDS011;9161;47.348;9.648;2024-02-26T10:28:18;3.97;;;1.27;;
18072;SDS011;9161;47.348;9.648;2024-02-26T10:33:20;2.27;;;1.00;;
18072;SDS011;9161;47.348;9.648;2024-02-26T10:38:23;2.90;;;0.90;;
18072;SDS011;9161;47.348;9.648;2024-02-26T10:43:27;2.03;;;1.20;;
18072;SDS011;9161;47.348;9.648;2024-02-26T10:48:30;5.20;;;1.57;;
18072;SDS011;9161;47.348;9.648;2024-02-26T10:53:33;7.20;;;1.43;;
18072;SDS011;9161;47.348;9.648;2024-02-26T10:58:38;8.83;;;1.83;;
18072;SDS011;9161;47.348;9.648;2024-02-26T11:03:41;5.83;;;1.30;;
18072;SDS011;9161;47.348;9.648;2024-02-26T11:08:44;2.57;;;1.10;;
18072;SDS011;9161;47.348;9.648;2024-02-26T11:13:52;9.00;;;1.63;;
18072;SDS011;9161;47.348;9.648;2024-02-26T11:18:55;3.53;;;1.40;;
18072;SDS011;9161;47.348;9.648;2024-02-26T11:23:59;3.07;;;1.00;;
18072;SDS011;9161;47.348;9.648;2024-02-26T11:29:05;6.07;;;1.40;;
18072;SDS011;9161;47.348;9.648;2024-02-26T11:34:11;4.23;;;1.13;;
18072;SDS011;9161;47.348;9.648;2024-02-26T11:39:13;3.20;;;1.50;;
18072;SDS011;9161;47.348;9.648;2024-02-26T11:44:29;2.17;;;1.53;;
18072;SDS011;9161;47.348;9.648;2024-02-26T11:49:31;4.00;;;1.77;;
18072;SDS011;9161;47.348;9.648;2024-02-26T11:54:39;3.57;;;1.57;;
18072;SDS011;9161;47.348;9.648;2024-02-26T11:59:46;3.47;;;1.40;;
18072;SDS011;9161;47.348;9.648;2024-02-26T12:04:50;6.77;;;2.03;;
18072;SDS011;9161;47.348;9.648;2024-02-26T12:09:53;3.20;;;1.50;;
18072;SDS011;9161;47.348;9.648;2024-02-26T12:15:17;3.37;;;1.83;;
18072;SDS011;9161;47.348;9.648;2024-02-26T12:20:21;3.63;;;1.90;;
18072;SDS011;9161;47.348;9.648;2024-02-26T12:25:25;4.20;;;1.50;;
18072;SDS011;9161;47.348;9.648;2024-02-26T12:30:32;9.53;;;2.00;;
18072;SDS011;9161;47.348;9.648;2024-02-26T12:35:36;5.53;;;2.20;;
18072;SDS011;9161;47.348;9.648;2024-02-26T12:40:39;6.97;;;2.50;;
18072;SDS011;9161;47.348;9.648;2024-02-26T12:45:43;6.07;;;2.43;;
18072;SDS011;9161;47.348;9.648;2024-02-26T12:50:48;4.37;;;2.50;;
18072;SDS011;9161;47.348;9.648;2024-02-26T12:55:50;8.23;;;2.50;;
18072;SDS011;9161;47.348;9.648;2024-02-26T13:00:54;4.00;;;1.80;;
18072;SDS011;9161;47.348;9.648;2024-02-26T13:05:57;2.83;;;1.80;;
18072;SDS011;9161;47.348;9.648;2024-02-26T13:11:00;7.33;;;2.20;;
18072;SDS011;9161;47.348;9.648;2024-02-26T13:16:04;3.97;;;2.23;;
18072;SDS011;9161;47.348;9.648;2024-02-26T13:21:09;5.80;;;2.60;;
18072;SDS011;9161;47.348;9.648;2024-02-26T13:26:12;8.37;;;2.43;;
18072;SDS011;9161;47.348;9.648;2024-02-26T13:31:16;5.50;;;2.30;;
18072;SDS011;9161;47.348;9.648;2024-02-26T13:36:18;9.73;;;2.30;;
18072;SDS011;9161;47.348;9.648;2024-02-26T13:41:20;7.63;;;3.00;;
18072;SDS011;9161;47.348;9.648;2024-02-26T13:46:24;5.57;;;2.87;;
18072;SDS011;9161;47.348;9.648;2024-02-26T13:51:26;5.03;;;2.80;;
18072;SDS011;9161;47.348;9.648;2024-02-26T13:56:35;6.73;;;2.47;;
18072;SDS011;9161;47.348;9.648;2024-02-26T14:01:39;8.07;;;3.00;;
18072;SDS011;9161;47.348;9.648;2024-02-26T14:06:42;8.73;;;2.60;;
18072;SDS011;9161;47.348;9.648;2024-02-26T14:11:44;6.30;;;2.83;;
18072;SDS011;9161;47.348;9.648;2024-02-26T14:16:48;7.07;;;2.73;;
18072;SDS011;9161;47.348;9.648;2024-02-26T14:21:50;5.33;;;2.90;;
18072;SDS011;9161;47.348;9.648;2024-02-26T14:26:53;5.90;;;2.53;;
18072;SDS011;9161;47.348;9.648;2024-02-26T14:31:57;5.83;;;2.83;;
18072;SDS011;9161;47.348;9.648;2024-02-26T14:36:59;6.00;;;2.47;;
18072;SDS011;9161;47.348;9.648;2024-02-26T14:42:01;7.60;;;2.37;;
18072;SDS011;9161;47.348;9.648;2024-02-26T14:47:05;6.67;;;2.60;;
18072;SDS011;9161;47.348;9.648;2024-02-26T14:52:07;10.43;;;3.17;;
18072;SDS011;9161;47.348;9.648;2024-02-26T14:57:10;8.20;;;3.37;;
18072;SDS011;9161;47.348;9.648;2024-02-26T15:02:13;9.77;;;2.63;;
18072;SDS011;9161;47.348;9.648;2024-02-26T15:07:16;5.83;;;2.67;;
18072;SDS011;9161;47.348;9.648;2024-02-26T15:12:20;5.73;;;2.40;;
18072;SDS011;9161;47.348;9.648;2024-02-26T15:17:27;19.50;;;4.83;;
18072;SDS011;9161;47.348;9.648;2024-02-26T15:22:32;7.17;;;2.60;;
18072;SDS011;9161;47.348;9.648;2024-02-26T15:27:34;4.80;;;2.47;;
18072;SDS011;9161;47.348;9.648;2024-02-26T15:32:38;6.20;;;2.80;;
18072;SDS011;9161;47.348;9.648;2024-02-26T15:37:41;7.87;;;2.13;;
18072;SDS011;9161;47.348;9.648;2024-02-26T15:42:43;6.60;;;1.50;;
18072;SDS011;9161;47.348;9.648;2024-02-26T15:47:49;3.80;;;1.30;;
18072;SDS011;9161;47.348;9.648;2024-02-26T15:52:51;4.77;;;1.60;;
18072;SDS011;9161;47.348;9.648;2024-02-26T15:57:54;6.10;;;2.77;;
18072;SDS011;9161;47.348;9.648;2024-02-26T16:02:57;6.00;;;2.50;;
18072;SDS011;9161;47.348;9.648;2024-02-26T16:08:05;9.03;;;3.43;;
18072;SDS011;9161;47.348;9.648;2024-02-26T16:13:12;8.50;;;3.27;;
18072;SDS011;9161;47.348;9.648;2024-02-26T16:18:21;9.03;;;3.20;;
18072;SDS011;9161;47.348;9.648;2024-02-26T16:23:23;11.93;;;3.77;;
18072;SDS011;9161;47.348;9.648;2024-02-26T16:28:26;9.00;;;3.70;;
18072;SDS011;9161;47.348;9.648;2024-02-26T16:33:29;10.57;;;3.80;;
18072;SDS011;9161;47.348;9.648;2024-02-26T16:38:32;14.17;;;3.53;;
18072;SDS011;9161;47.348;9.648;2024-02-26T16:43:34;11.77;;;3.70;;
18072;SDS011;9161;47.348;9.648;2024-02-26T16:48:38;8.47;;;2.87;;
18072;SDS011;9161;47.348;9.648;2024-02-26T16:53:41;13.40;;;2.90;;
18072;SDS011;9161;47.348;9.648;2024-02-26T16:58:42;9.17;;;2.43;;
18072;SDS011;9161;47.348;9.648;2024-02-26T17:03:46;5.07;;;2.13;;
18072;SDS011;9161;47.348;9.648;2024-02-26T17:08:49;6.07;;;2.20;;
18072;SDS011;9161;47.348;9.648;2024-02-26T17:13:53;5.77;;;2.10;;
18072;SDS011;9161;47.348;9.648;2024-02-26T17:18:57;4.83;;;2.07;;
18072;SDS011;9161;47.348;9.648;2024-02-26T17:23:59;5.70;;;2.20;;
18072;SDS011;9161;47.348;9.648;2024-02-26T17:29:02;9.07;;;3.53;;
18072;SDS011;9161;47.348;9.648;2024-02-26T17:34:06;14.93;;;5.17;;
18072;SDS011;9161;47.348;9.648;2024-02-26T17:39:09;9.20;;;3.10;;
18072;SDS011;9161;47.348;9.648;2024-02-26T17:44:13;5.57;;;1.77;;
18072;SDS011;9161;47.348;9.648;2024-02-26T17:49:16;7.73;;;3.33;;
18072;SDS011;9161;47.348;9.648;2024-02-26T17:54:19;18.33;;;8.57;;
18072;SDS011;9161;47.348;9.648;2024-02-26T17:59:22;9.40;;;4.27;;
18072;SDS011;9161;47.348;9.648;2024-02-26T18:04:26;5.77;;;2.43;;
18072;SDS011;9161;47.348;9.648;2024-02-26T18:09:29;7.90;;;2.70;;
18072;SDS011;9161;47.348;9.648;2024-02-26T18:14:33;5.80;;;2.40;;
18072;SDS011;9161;47.348;9.648;2024-02-26T18:19:37;4.73;;;2.20;;
18072;SDS011;9161;47.348;9.648;2024-02-26T18:24:40;4.83;;;2.00;;
18072;SDS011;9161;47.348;9.648;2024-02-26T18:29:44;3.27;;;1.97;;
18072;SDS011;9161;47.348;9.648;2024-02-26T18:34:51;5.50;;;2.37;;
18072;SDS011;9161;47.348;9.648;2024-02-26T18:39:55;5.93;;;2.63;;
18072;SDS011;9161;47.348;9.648;2024-02-26T18:44:59;8.03;;;3.07;;
18072;SDS011;9161;47.348;9.648;2024-02-26T18:50:06;6.47;;;2.67;;
18072;SDS011;9161;47.348;9.648;2024-02-26T18:55:12;4.67;;;2.70;;
18072;SDS011;9161;47.348;9.648;2024-02-26T19:00:18;7.00;;;3.10;;
18072;SDS011;9161;47.348;9.648;2024-02-26T19:05:25;5.97;;;2.77;;
18072;SDS011;9161;47.348;9.648;2024-02-26T19:10:32;6.73;;;2.50;;
18072;SDS011;9161;47.348;9.648;2024-02-26T19:15:39;9.53;;;3.40;;
18072;SDS011;9161;47.348;9.648;2024-02-26T19:20:49;9.23;;;3.37;;
18072;SDS011;9161;47.348;9.648;2024-02-26T19:25:54;18.47;;;5.50;;
18072;SDS011;9161;47.348;9.648;2024-02-26T19:31:00;10.70;;;4.20;;
18072;SDS011;9161;47.348;9.648;2024-02-26T19:36:09;11.43;;;4.30;;
18072;SDS011;9161;47.348;9.648;2024-02-26T19:41:15;12.83;;;3.60;;
18072;SDS011;9161;47.348;9.648;2024-02-26T19:46:20;9.13;;;3.50;;
18072;SDS011;9161;47.348;9.648;2024-02-26T19:51:28;22.50;;;6.70;;
18072;SDS011;9161;47.348;9.648;2024-02-26T19:56:36;14.47;;;5.57;;
18072;SDS011;9161;47.348;9.648;2024-02-26T20:01:44;14.07;;;4.83;;
18072;SDS011;9161;47.348;9.648;2024-02-26T20:06:53;13.43;;;4.57;;
18072;SDS011;9161;47.348;9.648;2024-02-26T20:12:01;13.33;;;3.60;;
18072;SDS011;9161;47.348;9.648;2024-02-26T20:17:10;10.20;;;3.10;;
18072;SDS011;9161;47.348;9.648;2024-02-26T20:22:18;7.90;;;2.50;;
18072;SDS011;9161;47.348;9.648;2024-02-26T20:32:25;10.77;;;3.63;;
18072;SDS011;9161;47.348;9.648;2024-02-26T20:37:32;8.67;;;3.70;;
18072;SDS011;9161;47.348;9.648;2024-02-26T20:42:38;7.67;;;3.13;;
18072;SDS011;9161;47.348;9.648;2024-02-26T20:47:43;8.23;;;2.50;;
18072;SDS011;9161;47.348;9.648;2024-02-26T20:52:54;8.10;;;2.87;;
18072;SDS011;9161;47.348;9.648;2024-02-26T20:57:59;13.63;;;3.73;;
18072;SDS011;9161;47.348;9.648;2024-02-26T21:03:05;14.20;;;5.93;;
18072;SDS011;9161;47.348;9.648;2024-02-26T21:08:13;12.50;;;4.50;;
18072;SDS011;9161;47.348;9.648;2024-02-26T21:13:35;10.57;;;4.53;;
18072;SDS011;9161;47.348;9.648;2024-02-26T21:18:38;11.90;;;4.80;;
18072;SDS011;9161;47.348;9.648;2024-02-26T21:23:44;15.30;;;5.57;;
18072;SDS011;9161;47.348;9.648;2024-02-26T21:28:47;12.00;;;4.80;;
18072;SDS011;9161;47.348;9.648;2024-02-26T21:33:49;15.47;;;5.63;;
18072;SDS011;9161;47.348;9.648;2024-02-26T21:38:53;15.37;;;5.60;;
18072;SDS011;9161;47.348;9.648;2024-02-26T21:43:56;16.17;;;5.53;;
18072;SDS011;9161;47.348;9.648;2024-02-26T21:49:06;13.30;;;4.70;;
18072;SDS011;9161;47.348;9.648;2024-02-26T21:54:09;14.43;;;5.90;;
18072;SDS011;9161;47.348;9.648;2024-02-26T21:59:12;10.80;;;4.90;;
18072;SDS011;9161;47.348;9.648;2024-02-26T22:04:15;8.73;;;4.13;;
18072;SDS011;9161;47.348;9.648;2024-02-26T22:09:19;8.10;;;4.00;;
18072;SDS011;9161;47.348;9.648;2024-02-26T22:14:24;11.33;;;3.83;;
18072;SDS011;9161;47.348;9.648;2024-02-26T22:19:28;7.03;;;3.77;;
18072;SDS011;9161;47.348;9.648;2024-02-26T22:24:32;9.93;;;4.30;;
18072;SDS011;9161;47.348;9.648;2024-02-26T22:29:36;7.90;;;3.23;;
18072;SDS011;9161;47.348;9.648;2024-02-26T22:34:39;9.93;;;3.93;;
18072;SDS011;9161;47.348;9.648;2024-02-26T22:39:43;9.20;;;4.20;;
18072;SDS011;9161;47.348;9.648;2024-02-26T22:44:45;12.33;;;4.27;;
18072;SDS011;9161;47.348;9.648;2024-02-26T22:49:48;7.27;;;3.63;;
18072;SDS011;9161;47.348;9.648;2024-02-26T22:54:51;7.50;;;3.80;;
18072;SDS011;9161;47.348;9.648;2024-02-26T22:59:53;7.30;;;3.53;;
18072;SDS011;9161;47.348;9.648;2024-02-26T23:04:56;7.23;;;3.10;;
18072;SDS011;9161;47.348;9.648;2024-02-26T23:10:07;6.63;;;3.30;;
18072;SDS011;9161;47.348;9.648;2024-02-26T23:15:10;5.33;;;2.87;;
18072;SDS011;9161;47.348;9.648;2024-02-26T23:20:12;6.03;;;2.97;;
18072;SDS011;9161;47.348;9.648;2024-02-26T23:25:16;4.80;;;2.60;;
18072;SDS011;9161;47.348;9.648;2024-02-26T23:30:19;5.87;;;3.03;;
18072;SDS011;9161;47.348;9.648;2024-02-26T23:35:22;5.67;;;2.77;;
18072;SDS011;9161;47.348;9.648;2024-02-26T23:40:28;7.60;;;3.20;;
18072;SDS011;9161;47.348;9.648;2024-02-26T23:45:34;7.47;;;2.80;;
18072;SDS011;9161;47.348;9.648;2024-02-26T23:50:36;6.93;;;2.70;;
18072;SDS011;9161;47.348;9.648;2024-02-26T23:55:40;4.27;;;2.37;;
